Terminal Aerodrome Forecast
Issued by NWS Corpus Christi, TX

Current Version | Previous Version | Text Only | Print | Product List | Glossary Off
Versions: 1 2 3 4 5 6 7 8 9 10 11 12 13 14 15

000
FTUS44 KCRP 291700
TAFVCT
TAF
KVCT 291731Z 2918/3018 18018G29KT P6SM SKC
     FM300100 17012KT P6SM SCT013
     FM301000 17005KT 5SM BR BKN011
     FM301600 17012KT P6SM BKN025=

USA.gov is the U.S. government's official web portal to all federal, state and local government web resources and services.